Webcam  Webcam


Thunder radar more information blitzortung!


Rain radar more information rain snow radar



Nearby METAR Reports

   
EHVK - Volkel Rnlafb, Netherlands
Distance from station: SW 18 km
Updated: 25-09-2021 01:55
Overcast  
Overcast  
   Wind: SW 4.1 m/s
Wind: SW 4.1 m/s
Temperature: 16°C
Dew Point: 14°C
Humidity: 88%
Barometer: 1015 hPa
Clouds: Overcast
Visibility: More than 10 km
Cloud details: Overcast 5200 ft
EHVK 242355Z AUTO 22008KT 190V250 9999 OVC052 16/14 Q1015 BLU
EDLV - Niederrhein, Germany
Distance from station: SE 25 km
Updated: 24-09-2021 23:50
NOT Current
Clear  
Clear  
   Wind: SW 4.1 m/s
Wind: SW 4.1 m/s
Temperature: 16°C
Dew Point: 14°C
Humidity: 88%
Barometer: 1015 hPa
Visibility: More than 10 km
Cloud details: Clear
EDLV 242150Z 23008KT CAVOK 16/14 Q1015
EHDL - Deelen Rnlafb, Netherlands
Distance from station: N 35 km
Updated: 25-09-2021 01:55
Overcast  
Overcast  
   Wind: SW 3.1 m/s
Wind: SW 3.1 m/s
Temperature: 16°C
Dew Point: 14°C
Humidity: 88%
Barometer: 1015 hPa
Clouds: Overcast
Visibility: More than 10 km
Cloud details: Overcast 3300 ft
EHDL 242355Z AUTO 22006KT 120V260 9999 OVC033 16/14 Q1015 BLU
EHEH - Eindhoven Rnlafb, Netherlands
Distance from station: SW 48 km
Updated: 25-09-2021 01:55
Overcast  
Overcast  
   Wind: SSW 3.6 m/s
Wind: SSW 3.6 m/s
Temperature: 15°C
Dew Point: 14°C
Humidity: 94%
Barometer: 1016 hPa
Clouds: Overcast
Visibility: More than 10 km
Cloud details: Overcast 5200 ft
EHEH 242355Z AUTO 21007KT 9999 OVC052 15/14 Q1016 BLU
EHGR - Gilze-Rijen Rnla, Netherlands
Distance from station: WSW 70 km
Updated: 25-09-2021 01:55
Overcast  
Overcast  
   Wind: SSW 2.6 m/s
Wind: SSW 2.6 m/s
Temperature: 16°C
Dew Point: 13°C
Humidity: 83%
Barometer: 1015 hPa
Clouds: Overcast
Visibility: More than 10 km
Cloud details: Overcast 5000 ft
EHGR 242355Z AUTO 21005KT 170V250 9999 OVC050 16/13 Q1015 BLU
EBBL - Kleine-Brogel(Ba, Belgium
Distance from station: SSW 71 km
Updated: 25-09-2021 01:55
Clear  
Clear  
   Wind: SSW 1.5 m/s
Wind: SSW 1.5 m/s
Temperature: 14°C
Dew Point: 13°C
Humidity: 94%
Barometer: 1016 hPa
Clouds: Clear
Visibility: More than 10 km
Cloud details: Clear
EBBL 242355Z AUTO 21003KT 9999 NCD 14/13 Q1016 BLU

Script developed by  Saratoga-weather.org Adapted for the template by  Weerstation Leuven

You find our weather info also at:

UK Metoffice

European Weather Network

WeatherCloud

Weather Underground

AWEKAS

Citizen Weather Observer Program (CWOP)

HAMweather, WeatherForYou, PWS Weather

Equipment we use:

Weather-station
Davis VP2

Weather-program
Meteobridge

Weather-server
Meteobridge Pro

Davis VP2

Meteobridge

Meteobridge Pro